Airfield :
LOGIN :

Register | Disclaimer

   EN    FR    IT 

 










Legend :    VFR   Marginal VFR   IFR   Intensive IFR   Very Intensive IFR
Visi :
Ceiling :
>= 8 km
>= 3000ft
5 to 8 km
1000 to 3000 ft
1500m to 5 km
500 to 1000 ft
800 to 1500m
200 to 500 ft
< 800m
< 200 ft
Symbols :   Thunderstorms  Fog  Heavy snow  Heavy precipitations  Wind > 20 kt
SIGMETs :     Misc.  Thunderstorms  Icing  Turbulence  Mountain Waves  Volcanic Ashes







- Airport Elevation : 412 ft
- IATA code : KGS


LGKO - Ippokratis

CURRENT METAR :
  • 161120Z VRB03KT 9999 FEW018TCU BKN025 12/07 Q1017

EXPIRED METARs :
  • 161050Z VRB03KT 9999 FEW018TCU BKN025 12/07 Q1017
  • 161020Z VRB02KT 9999 FEW018TCU BKN025 12/07 Q1017
  • 160950Z /////KT 9999 FEW018TCU BKN025 12/07 Q1017
  • 160920Z /////KT 9999 FEW018TCU SCT025 12/07 Q1017
  • 160850Z /////KT 9999 FEW018TCU SCT030 12/07 Q1017

TAF TAF LGKO
Valid from the 16 at 12:00 until the 17 at 12:00 UTC


161100Z 1612/1712 04012KT 9999 FEW020 SCT025
PROB40
TEMPO 1612/1618 5000 RA SCT015 FEW018TCU BKN020
BECMG 1612/1614 VRB05KT
BECMG 1710/1712 34015KT
No reported NOTAMs for that airfield.
2 SIGMETs reported for the Athinai FIR (LGGG) :
 
Embedded thunderstorms
LGGG SIGMET 5 VALID 161135/161535 LGAT
LGGG ATHINAI FIR/UIR EMBD TS OBS E OF E02330 AND S OF N3700 STNR NC=
Embedded thunderstorms
LGGG SIGMET 4 VALID 160735/161135 LGAT
LGGG ATHINAI FIR/UIR EMBD TS OBS E OF E02330 AND S OF N3700 STNR NC=



MET'MAP, your aeronautical weather chart ! - Copyright ORBIFLY December 2007 - Disclaimer

ORBIFLY MET'MAP TEAM :

Programming & Development : Alexandra Zaïnal
Concept & Development : Baudouin d'Aumeries
Co-Development & Prog : Marc-Olivier Méhu
Technical & hardware support : Manuel Goepfert

Contact : metmap@orbifly.com




SOURCES & CREDITS :

   NOAA